Detall de PIREP

Printer-friendly versionPDF version

[2014/06/05 09:27:00]
Flight IATA:CT2212
Pilot Number:042
Company ICAO:CAT
Aircraft Type:A320/E
PAX:86
Departing Airport: LFMP
Destination Airport: LFST
Alternate Airport:LZSH
Online: VATSIM
Route:SIJAN A27 MOU G21 EPL
Flight Level:F240
No Slew and time accel
No pause
Crash detect
Detect pilot in Cockpit between each 30 and 45 minutes
09:27 Zero fuel Weight: 124281 Lbs, Fuel Weight: 42209 Lbs
09:27 VATSIM:LFMP 050830Z VRB03KT 9999 FEW050 20/08 Q1015 NOSIG
09:27 VATSIM:LFST 050900Z AUTO VRB03KT 9999 FEW037 BKN043 BKN054 17/07 Q1016
09:36 Parking Brakes off
09:41 Take-off
09:41 Take off Weight: 165539 Lbs
09:41 Wind: 269º @ 008 Knots Heading: 329º
09:41 POS N42º 45´ 20´´ E002º 51´ 37´´
09:41 Gear Up: 142 Knots
09:41 Flaps:3 at 142 Knots
09:41 Flaps:2 at 145 Knots
09:42 Flaps:0 at 173 Knots
09:49 TOC
09:49 Fuel Weight: 38857 Lb
09:56 Wind:270º@025 Knots Heading: 003º Ground Speed: 468 Knots Altitude 23986 ft
10:11 Wind:270º@025 Knots Heading: 015º Ground Speed: 473 Knots Altitude 23986 ft
10:26 Wind:270º@025 Knots Heading: 040º Ground Speed: 482 Knots Altitude 23986 ft
10:29 TOD
10:29 Fuel Weight: 33455 Lb
10:39 Flaps:1 at 219 Knots
10:39 Flaps:3 at 269 Knots
10:41 Wind:269º@011 Knots Heading: 075º Ground Speed: 244 Knots Altitude 4498 ft
10:44 Flaps:4 at 169 Knots
10:44 Gear Down: 169 Knots
10:44 Flaps:5 at 164 Knots
10:44 Gear Up: 164 Knots
10:44 Gear Down: 164 Knots
10:47 TouchDown:Rate -219 ft/min Speed: 150 Knots
10:47 VATSIM:LFST 051030Z AUTO 22004KT 110V280 9999 BKN047 BKN054 BKN064 19/07 Q1016
10:47 Land
10:47 Wind:269º@008 Knots
10:47 Heading: 048º
10:47 Flight Duration: 01:06
10:47 Landing Weight: 156751 Lbs
10:47 POS N48º 32´ 23´´ E007º 37´ 50´´
10:49 Parking brakes on
10:49 Block to Block Duration: 01:13
10:49 Final Fuel: 32173 Lbls
10:49 Spent Fuel: 10035 Lbls
10:49 Flight Length: 446 NM
10:49 TOD Land Length: 88 NM

Exportar CSV

Powered by Drupal - Modified by Danger4k